createdAt,value
2022-12-22T00:02:38.798Z,0.33
2022-12-22T00:05:41.171Z,0.33
2022-12-22T00:08:27.287Z,0.36
2022-12-22T00:11:13.829Z,0.35
2022-12-22T00:14:01.359Z,0.35
2022-12-22T00:16:51.329Z,0.39
2022-12-22T00:19:36.889Z,0.38
2022-12-22T00:22:32.181Z,0.39
2022-12-22T00:25:17.577Z,0.40
2022-12-22T00:28:03.031Z,0.37
2022-12-22T00:30:48.247Z,0.37
2022-12-22T00:33:37.121Z,0.38
2022-12-22T00:36:24.567Z,0.35
2022-12-22T00:39:09.739Z,0.36
2022-12-22T00:41:54.935Z,0.38
2022-12-22T00:44:39.758Z,0.38
2022-12-22T00:47:32.165Z,0.37
2022-12-22T00:50:17.897Z,0.38
2022-12-22T00:53:03.114Z,0.40
2022-12-22T00:55:49.880Z,0.42
2022-12-22T00:58:37.429Z,0.42
2022-12-22T01:01:23.099Z,0.46
2022-12-22T01:04:08.166Z,0.49
2022-12-22T01:06:54.786Z,0.48
2022-12-22T01:09:41.971Z,0.47
2022-12-22T01:12:36.638Z,0.49
2022-12-22T01:15:22.034Z,0.52
2022-12-22T01:18:06.748Z,0.49
2022-12-22T01:20:51.998Z,0.53
2022-12-22T01:23:37.246Z,0.55
2022-12-22T01:26:22.744Z,0.54
2022-12-22T01:29:07.557Z,0.50
2022-12-22T01:31:52.666Z,0.53
2022-12-22T01:34:37.531Z,0.57
2022-12-22T01:37:22.571Z,0.61
2022-12-22T01:40:07.243Z,0.62
2022-12-22T01:42:53.717Z,0.66
2022-12-22T01:45:47.677Z,0.67
2022-12-22T01:48:35.300Z,0.66
2022-12-22T01:51:34.456Z,0.64
2022-12-22T01:54:19.960Z,0.65
2022-12-22T01:57:06.989Z,0.68
2022-12-22T01:59:52.593Z,0.71
2022-12-22T02:02:39.987Z,0.73
2022-12-22T02:05:29.303Z,0.76
2022-12-22T02:08:37.469Z,0.79
2022-12-22T02:11:48.234Z,0.84
2022-12-22T02:15:02.073Z,0.86
2022-12-22T02:17:51.682Z,0.84
2022-12-22T02:21:05.881Z,0.88
2022-12-22T02:24:07.046Z,0.91
2022-12-22T02:27:10.660Z,0.95
2022-12-22T02:30:02.042Z,0.99
2022-12-22T02:32:53.099Z,0.99
2022-12-22T02:35:38.652Z,0.97
2022-12-22T02:38:37.728Z,0.98
2022-12-22T02:41:42.038Z,0.99
2022-12-22T02:45:06.843Z,1.01
2022-12-22T02:48:03.785Z,1.05
2022-12-22T02:50:53.602Z,1.10
2022-12-22T02:53:39.406Z,1.14
2022-12-22T02:56:27.363Z,1.14
2022-12-22T02:59:13.099Z,1.17
2022-12-22T03:02:00.160Z,1.19
2022-12-22T03:04:45.072Z,1.19
2022-12-22T03:07:30.063Z,1.18
2022-12-22T03:10:15.544Z,1.17
2022-12-22T03:13:00.913Z,1.18
2022-12-22T03:15:45.853Z,1.18
2022-12-22T03:18:31.802Z,1.17
2022-12-22T03:21:17.738Z,1.18
2022-12-22T03:24:03.050Z,1.17
2022-12-22T03:26:31.173Z,1.17
2022-12-22T03:28:57.789Z,1.17
2022-12-22T03:31:24.454Z,1.16
2022-12-22T03:33:51.146Z,1.16
2022-12-22T03:36:17.671Z,1.19
2022-12-22T03:38:44.266Z,1.22
2022-12-22T03:41:30.764Z,1.23
2022-12-22T03:44:15.582Z,1.25
2022-12-22T03:46:42.162Z,1.25
2022-12-22T03:49:11.670Z,1.23
2022-12-22T03:51:50.944Z,1.23
2022-12-22T03:54:19.741Z,1.21
2022-12-22T03:56:47.156Z,1.20
2022-12-22T03:59:13.925Z,1.19
2022-12-22T04:01:43.988Z,1.15
2022-12-22T04:04:12.549Z,1.13
2022-12-22T04:06:39.575Z,1.06
2022-12-22T04:09:08.158Z,1.09
2022-12-22T04:11:53.995Z,1.09
2022-12-22T04:14:21.692Z,1.11
2022-12-22T04:16:48.968Z,1.11
2022-12-22T04:19:16.167Z,1.13
2022-12-22T04:21:43.907Z,1.13
2022-12-22T04:24:14.548Z,1.14
2022-12-22T04:26:41.134Z,1.14
2022-12-22T04:29:07.965Z,1.13
2022-12-22T04:31:34.577Z,1.14
2022-12-22T04:34:01.210Z,1.12
2022-12-22T04:36:27.782Z,1.10
2022-12-22T04:38:54.372Z,1.07
2022-12-22T04:41:21.015Z,1.06
2022-12-22T04:43:47.633Z,1.06
2022-12-22T04:46:14.339Z,1.07
2022-12-22T04:48:41.937Z,1.06
2022-12-22T04:51:08.519Z,1.04
2022-12-22T04:53:35.461Z,1.02
2022-12-22T04:56:05.047Z,1.05
2022-12-22T04:58:32.200Z,1.03
2022-12-22T05:01:09.142Z,1.01
2022-12-22T05:03:35.893Z,1.00
2022-12-22T05:06:02.504Z,1.00
2022-12-22T05:08:29.047Z,1.01
2022-12-22T05:10:55.600Z,0.99
2022-12-22T05:13:22.193Z,0.99
2022-12-22T05:15:48.741Z,1.03
2022-12-22T05:18:15.436Z,1.04
2022-12-22T05:20:42.085Z,1.05
2022-12-22T05:23:08.660Z,1.00
2022-12-22T05:25:35.765Z,1.02
2022-12-22T05:28:02.921Z,1.05
2022-12-22T05:30:29.529Z,1.06
2022-12-22T05:32:56.136Z,1.06
2022-12-22T05:35:22.808Z,1.07
2022-12-22T05:37:49.389Z,1.09
2022-12-22T05:40:16.188Z,1.10
2022-12-22T05:42:42.771Z,1.10
2022-12-22T05:45:18.337Z,1.12
2022-12-22T05:47:47.461Z,1.13
2022-12-22T05:50:17.488Z,1.14
2022-12-22T05:52:44.427Z,1.13
2022-12-22T05:55:11.863Z,1.14
2022-12-22T05:57:38.550Z,1.14
2022-12-22T06:00:10.744Z,1.13
2022-12-22T06:02:37.393Z,1.10
2022-12-22T06:05:04.451Z,1.09
2022-12-22T06:07:31.094Z,1.04
2022-12-22T06:09:57.674Z,1.04
2022-12-22T06:12:24.277Z,1.05
2022-12-22T06:14:50.944Z,1.02
2022-12-22T06:17:17.581Z,1.02
2022-12-22T06:19:45.399Z,1.00
2022-12-22T06:22:11.976Z,1.00
2022-12-22T06:24:38.524Z,0.99
2022-12-22T06:27:05.623Z,1.00
2022-12-22T06:29:32.271Z,0.98
2022-12-22T06:31:58.883Z,0.97
2022-12-22T06:34:25.438Z,0.98
2022-12-22T06:36:54.315Z,0.98
2022-12-22T06:39:21.723Z,0.94
2022-12-22T06:42:07.971Z,0.97
2022-12-22T06:44:34.423Z,0.99
2022-12-22T06:47:01.026Z,1.01
2022-12-22T06:49:27.703Z,1.01
2022-12-22T06:51:54.568Z,1.01
2022-12-22T06:54:26.090Z,1.05
2022-12-22T06:56:53.221Z,1.08
2022-12-22T06:59:19.842Z,1.09
2022-12-22T07:01:46.586Z,1.13
2022-12-22T07:04:19.687Z,1.14
2022-12-22T07:06:47.861Z,1.15
2022-12-22T07:09:14.563Z,1.19
2022-12-22T07:11:41.670Z,1.19
2022-12-22T07:14:08.309Z,1.22
2022-12-22T07:16:35.049Z,1.22
2022-12-22T07:19:01.676Z,1.24
2022-12-22T07:21:28.274Z,1.25
2022-12-22T07:23:54.861Z,1.26
2022-12-22T07:26:21.513Z,1.28
2022-12-22T07:28:48.135Z,1.33
2022-12-22T07:31:17.349Z,1.36
2022-12-22T07:33:44.099Z,1.39
2022-12-22T07:36:14.221Z,1.41
2022-12-22T07:38:43.138Z,1.43
2022-12-22T07:41:30.197Z,1.45
2022-12-22T07:43:58.822Z,1.44
2022-12-22T07:46:29.705Z,1.45
2022-12-22T07:49:15.150Z,1.46
2022-12-22T07:51:42.647Z,1.49
2022-12-22T07:54:11.425Z,1.47
2022-12-22T07:56:38.718Z,1.51
2022-12-22T07:59:06.019Z,1.55
2022-12-22T08:01:32.846Z,1.51
2022-12-22T08:03:59.532Z,1.53
2022-12-22T08:06:26.796Z,1.58
2022-12-22T08:08:54.420Z,1.64
2022-12-22T08:11:20.949Z,1.67
2022-12-22T08:13:47.723Z,1.70
2022-12-22T08:16:14.650Z,1.72
2022-12-22T08:18:41.984Z,1.74
2022-12-22T08:21:08.815Z,1.80
2022-12-22T08:23:36.567Z,1.83
2022-12-22T08:26:27.094Z,1.90
2022-12-22T08:28:59.411Z,1.95
2022-12-22T08:31:29.280Z,1.99
2022-12-22T08:33:58.989Z,2.03
2022-12-22T08:36:26.544Z,2.06
2022-12-22T08:38:53.334Z,2.08
2022-12-22T08:41:39.916Z,2.10
2022-12-22T08:44:06.524Z,2.07
2022-12-22T08:46:33.179Z,2.11
2022-12-22T08:48:59.812Z,2.13
2022-12-22T08:51:26.356Z,2.10
2022-12-22T08:54:08.137Z,2.07
2022-12-22T08:56:35.824Z,2.04
2022-12-22T08:59:07.782Z,2.07
2022-12-22T09:01:37.076Z,2.13
2022-12-22T09:04:04.986Z,2.16
2022-12-22T09:06:40.135Z,2.17
2022-12-22T09:09:10.385Z,2.21
2022-12-22T09:11:37.776Z,2.22
2022-12-22T09:14:05.320Z,2.23
2022-12-22T09:16:33.807Z,2.19
2022-12-22T09:19:01.593Z,2.26
2022-12-22T09:21:28.989Z,2.27
2022-12-22T09:23:56.454Z,2.31
2022-12-22T09:26:25.228Z,2.32
2022-12-22T09:28:52.601Z,2.27
2022-12-22T09:31:21.111Z,2.26
2022-12-22T09:33:48.377Z,2.25
2022-12-22T09:36:17.893Z,2.26
2022-12-22T09:38:46.028Z,2.29
2022-12-22T09:41:19.408Z,2.35
2022-12-22T09:43:46.455Z,2.37
2022-12-22T09:46:22.830Z,2.35
2022-12-22T09:48:50.087Z,2.35
2022-12-22T09:51:22.730Z,2.32
2022-12-22T09:53:57.360Z,2.28
2022-12-22T09:56:26.561Z,2.30
2022-12-22T09:58:53.149Z,2.34
2022-12-22T10:01:25.886Z,2.39
2022-12-22T10:04:01.336Z,2.46
2022-12-22T10:06:55.091Z,2.48
2022-12-22T10:09:48.785Z,2.52
2022-12-22T10:12:16.643Z,2.65
2022-12-22T10:14:46.542Z,2.80
2022-12-22T10:17:24.149Z,3.00
2022-12-22T10:19:54.276Z,3.28
2022-12-22T10:22:24.503Z,3.63
2022-12-22T10:24:51.168Z,3.84
2022-12-22T10:27:23.060Z,4.06
2022-12-22T10:29:52.454Z,4.22
2022-12-22T10:32:21.341Z,4.23
2022-12-22T10:35:06.194Z,4.14
2022-12-22T10:37:37.483Z,4.16
2022-12-22T10:40:21.239Z,4.23
2022-12-22T10:42:55.237Z,4.18
2022-12-22T10:45:25.924Z,4.07
2022-12-22T10:47:55.359Z,4.03
2022-12-22T10:50:22.673Z,4.09
2022-12-22T10:52:52.287Z,4.05
2022-12-22T10:55:26.200Z,4.10
2022-12-22T10:58:14.478Z,4.10
2022-12-22T11:00:41.728Z,4.07
2022-12-22T11:03:20.609Z,3.89
2022-12-22T11:05:49.055Z,4.06
2022-12-22T11:08:22.889Z,4.60
2022-12-22T11:10:55.617Z,5.41
2022-12-22T11:13:37.277Z,6.13
2022-12-22T11:16:14.533Z,6.74
2022-12-22T11:18:53.208Z,6.93
2022-12-22T11:21:43.216Z,6.92
2022-12-22T11:24:18.685Z,6.69
2022-12-22T11:27:01.640Z,6.33
2022-12-22T11:29:47.018Z,5.89
2022-12-22T11:32:49.801Z,5.61
2022-12-22T11:35:43.524Z,5.41
2022-12-22T11:38:12.995Z,5.02
2022-12-22T11:40:46.790Z,4.78
2022-12-22T11:43:24.237Z,4.55
2022-12-22T11:46:16.289Z,4.58
2022-12-22T11:49:01.198Z,4.56
2022-12-22T11:51:36.797Z,4.59
2022-12-22T11:54:32.723Z,4.59
2022-12-22T11:57:20.158Z,4.54
2022-12-22T12:00:05.403Z,4.50
2022-12-22T12:03:04.599Z,4.47
2022-12-22T12:05:31.191Z,4.35
2022-12-22T12:08:35.804Z,4.26
2022-12-22T12:11:18.490Z,4.21
2022-12-22T12:13:50.916Z,4.09
2022-12-22T12:16:55.935Z,4.08
2022-12-22T12:19:26.850Z,4.09
2022-12-22T12:21:59.982Z,4.13
2022-12-22T12:24:33.947Z,4.18
2022-12-22T12:27:22.247Z,4.20
2022-12-22T12:33:47.706Z,4.18
2022-12-22T12:36:43.198Z,4.03
2022-12-22T12:39:09.898Z,3.98
2022-12-22T12:42:01.476Z,3.96
2022-12-22T12:44:33.526Z,3.95
2022-12-22T12:47:25.155Z,3.99
2022-12-22T12:49:57.146Z,4.06
2022-12-22T12:52:38.642Z,4.16
2022-12-22T12:55:32.341Z,4.26
2022-12-22T12:58:02.157Z,4.30
2022-12-22T13:00:34.705Z,4.33
2022-12-22T13:03:19.998Z,4.37
2022-12-22T13:05:59.775Z,4.28
2022-12-22T13:09:22.319Z,4.17
2022-12-22T13:12:14.540Z,4.14
2022-12-22T13:14:55.429Z,4.11
2022-12-22T13:17:50.297Z,4.15
2022-12-22T13:20:25.483Z,4.20
2022-12-22T13:22:57.045Z,4.24
2022-12-22T13:25:26.899Z,4.27
2022-12-22T13:27:56.668Z,4.26
2022-12-22T13:30:23.950Z,4.21
2022-12-22T13:32:50.889Z,4.18
2022-12-22T13:35:42.954Z,4.16
2022-12-22T13:38:45.900Z,4.06
2022-12-22T13:41:27.489Z,3.96
2022-12-22T13:44:04.077Z,3.88
2022-12-22T13:46:34.696Z,3.79
2022-12-22T13:49:04.890Z,3.72
2022-12-22T13:51:35.881Z,3.61
2022-12-22T13:54:33.543Z,3.53
2022-12-22T13:57:03.223Z,3.50
2022-12-22T13:59:34.687Z,3.45
2022-12-22T14:02:15.510Z,3.40
2022-12-22T14:05:03.798Z,3.29
2022-12-22T14:07:30.987Z,3.20
2022-12-22T14:09:59.474Z,3.16
2022-12-22T14:12:32.385Z,3.14
2022-12-22T14:15:03.028Z,3.16
2022-12-22T14:17:37.922Z,3.17
2022-12-22T14:20:26.901Z,3.12
2022-12-22T14:23:02.733Z,3.11
2022-12-22T14:25:33.655Z,3.06
2022-12-22T14:28:01.332Z,3.01
2022-12-22T14:30:40.901Z,3.00
2022-12-22T14:33:16.492Z,3.01
2022-12-22T14:35:43.360Z,3.01
2022-12-22T14:38:26.756Z,3.01
2022-12-22T14:40:57.599Z,2.99
2022-12-22T14:43:26.887Z,2.99
2022-12-22T14:46:06.301Z,2.97
2022-12-22T14:48:39.875Z,2.97
2022-12-22T14:51:07.215Z,2.95
2022-12-22T14:53:39.965Z,2.91
2022-12-22T14:56:12.417Z,2.89
2022-12-22T14:58:42.044Z,2.85
2022-12-22T15:01:28.703Z,2.76
2022-12-22T15:04:02.263Z,2.68
2022-12-22T15:06:28.816Z,2.64
2022-12-22T15:09:13.410Z,2.61
2022-12-22T15:11:46.354Z,2.55
2022-12-22T15:14:23.410Z,2.51
2022-12-22T15:16:50.941Z,2.45
2022-12-22T15:19:20.887Z,2.40
2022-12-22T15:21:47.435Z,2.37
2022-12-22T15:24:16.893Z,2.34
2022-12-22T15:26:44.939Z,2.33
2022-12-22T15:29:11.847Z,2.31
2022-12-22T15:31:39.858Z,2.30
2022-12-22T15:34:15.138Z,2.27
2022-12-22T15:36:41.732Z,2.26
2022-12-22T15:39:16.928Z,2.25
2022-12-22T15:41:44.698Z,2.22
2022-12-22T15:44:11.791Z,2.18
2022-12-22T15:46:40.316Z,2.18
2022-12-22T15:49:13.895Z,2.18
2022-12-22T15:51:40.636Z,2.19
2022-12-22T15:54:13.038Z,2.19
2022-12-22T15:56:39.861Z,2.22
2022-12-22T15:59:06.616Z,2.30
2022-12-22T16:01:33.276Z,2.32
2022-12-22T16:03:59.942Z,2.33
2022-12-22T16:06:26.591Z,2.35
2022-12-22T16:08:54.266Z,2.30
2022-12-22T16:11:21.038Z,2.32
2022-12-22T16:13:49.973Z,2.35
2022-12-22T16:16:17.053Z,2.35
2022-12-22T16:18:43.697Z,2.38
2022-12-22T16:21:19.916Z,2.42
2022-12-22T16:23:49.088Z,2.43
2022-12-22T16:26:19.363Z,2.42
2022-12-22T16:28:46.790Z,2.46
2022-12-22T16:31:22.218Z,2.45
2022-12-22T16:33:49.988Z,2.50
2022-12-22T16:36:17.451Z,2.53
2022-12-22T16:38:45.918Z,2.51
2022-12-22T16:41:22.490Z,2.55
2022-12-22T16:46:36.242Z,2.52
2022-12-22T16:49:03.047Z,2.48
2022-12-22T16:51:34.060Z,2.45
2022-12-22T16:54:01.667Z,2.49
2022-12-22T16:56:31.058Z,2.46
2022-12-22T16:58:57.995Z,2.42
2022-12-22T17:01:27.534Z,2.45
2022-12-22T17:03:55.084Z,2.45
2022-12-22T17:06:21.963Z,2.46
2022-12-22T17:08:49.079Z,2.53
2022-12-22T17:11:22.964Z,2.55
2022-12-22T17:13:53.388Z,2.54
2022-12-22T17:16:22.242Z,2.57
2022-12-22T17:18:49.191Z,2.57
2022-12-22T17:21:18.943Z,2.61
2022-12-22T17:23:51.875Z,2.58
2022-12-22T17:26:22.909Z,2.59
2022-12-22T17:28:50.264Z,2.53
2022-12-22T17:31:19.238Z,2.49
2022-12-22T17:33:46.216Z,2.52
2022-12-22T17:36:30.876Z,2.50
2022-12-22T17:38:58.194Z,2.48
2022-12-22T17:41:24.923Z,2.51
2022-12-22T17:43:51.668Z,2.58
2022-12-22T17:46:20.542Z,2.58
2022-12-22T17:48:48.456Z,2.54
2022-12-22T17:51:24.372Z,2.51
2022-12-22T17:53:52.721Z,2.53
2022-12-22T17:56:22.013Z,2.54
2022-12-22T17:58:48.814Z,2.49
2022-12-22T18:01:30.950Z,2.56
2022-12-22T18:03:58.554Z,2.59
2022-12-22T18:06:33.878Z,2.57
2022-12-22T18:09:01.305Z,2.57
2022-12-22T18:11:28.233Z,2.52
2022-12-22T18:13:57.330Z,2.52
2022-12-22T18:16:24.259Z,2.48
2022-12-22T18:18:51.492Z,2.48
2022-12-22T18:21:21.201Z,2.45
2022-12-22T18:23:50.706Z,2.49
2022-12-22T18:26:29.700Z,2.57
2022-12-22T18:28:57.273Z,2.57
2022-12-22T18:31:24.638Z,2.61
2022-12-22T18:33:51.807Z,2.67
2022-12-22T18:36:37.259Z,2.70
2022-12-22T18:39:04.625Z,2.72
2022-12-22T18:41:35.340Z,2.73
2022-12-22T18:44:01.968Z,2.81
2022-12-22T18:46:28.581Z,2.83
2022-12-22T18:48:57.751Z,2.88
2022-12-22T18:51:27.527Z,2.85
2022-12-22T18:53:54.735Z,2.82
2022-12-22T18:56:21.493Z,2.80
2022-12-22T18:58:48.261Z,2.76
2022-12-22T19:01:24.582Z,2.75
2022-12-22T19:03:53.729Z,2.73
2022-12-22T19:06:22.193Z,2.73
2022-12-22T19:08:50.087Z,2.80
2022-12-22T19:11:21.504Z,2.85
2022-12-22T19:13:51.239Z,2.84
2022-12-22T19:16:22.958Z,2.81
2022-12-22T19:18:49.657Z,2.76
2022-12-22T19:21:18.137Z,2.72
2022-12-22T19:23:45.114Z,2.70
2022-12-22T19:26:26.901Z,2.68
2022-12-22T19:29:01.232Z,2.67
2022-12-22T19:31:32.290Z,2.69
2022-12-22T19:34:02.849Z,2.71
2022-12-22T19:36:31.192Z,2.71
2022-12-22T19:39:03.867Z,2.68
2022-12-22T19:41:41.752Z,2.66
2022-12-22T19:44:30.404Z,2.63
2022-12-22T19:46:59.332Z,2.64
2022-12-22T19:49:27.448Z,2.66
2022-12-22T19:51:55.704Z,2.66
2022-12-22T19:54:22.519Z,2.68
2022-12-22T19:56:53.300Z,2.68
2022-12-22T19:59:38.626Z,2.70
2022-12-22T20:02:21.195Z,2.72
2022-12-22T20:04:48.827Z,2.84
2022-12-22T20:07:16.943Z,2.86
2022-12-22T20:09:43.505Z,2.91
2022-12-22T20:12:22.171Z,3.01
2022-12-22T20:14:48.872Z,3.07
2022-12-22T20:17:15.443Z,3.16
2022-12-22T20:19:42.174Z,3.17
2022-12-22T20:22:14.156Z,3.17
2022-12-22T20:24:40.770Z,3.22
2022-12-22T20:27:18.385Z,3.29
2022-12-22T20:29:44.934Z,3.33
2022-12-22T20:32:15.668Z,3.35
2022-12-22T20:34:42.442Z,3.36
2022-12-22T20:37:14.553Z,3.36
2022-12-22T20:39:41.394Z,3.37
2022-12-22T20:42:20.796Z,3.38
2022-12-22T20:45:03.045Z,3.39
2022-12-22T20:47:32.461Z,3.51
2022-12-22T20:49:59.543Z,3.52
2022-12-22T20:52:26.187Z,3.51
2022-12-22T20:54:52.772Z,3.46
2022-12-22T20:57:20.313Z,3.44
2022-12-22T20:59:53.865Z,3.40
2022-12-22T21:02:25.342Z,3.38
2022-12-22T21:04:52.068Z,3.36
2022-12-22T21:07:18.782Z,3.38
2022-12-22T21:09:45.367Z,3.40
2022-12-22T21:12:11.948Z,3.49
2022-12-22T21:14:38.559Z,3.50
2022-12-22T21:17:05.190Z,3.57
2022-12-22T21:19:31.934Z,3.60
2022-12-22T21:21:58.540Z,3.61
2022-12-22T21:24:25.097Z,3.61
2022-12-22T21:26:55.220Z,3.62
2022-12-22T21:29:25.285Z,3.67
2022-12-22T21:31:52.026Z,3.64
2022-12-22T21:34:20.834Z,3.62
2022-12-22T21:36:52.204Z,3.55
2022-12-22T21:39:31.415Z,3.52
2022-12-22T21:42:00.781Z,3.51
2022-12-22T21:44:30.832Z,3.49
2022-12-22T21:46:57.826Z,3.52
2022-12-22T21:49:27.277Z,3.55
2022-12-22T21:51:54.885Z,3.50
2022-12-22T21:54:23.812Z,3.48
2022-12-22T21:56:51.752Z,3.49
2022-12-22T21:59:18.631Z,3.49
2022-12-22T22:01:45.575Z,3.51
2022-12-22T22:04:12.965Z,3.52
2022-12-22T22:06:39.551Z,3.58
2022-12-22T22:09:07.236Z,3.68
2022-12-22T22:11:54.052Z,3.73
2022-12-22T22:14:21.087Z,3.85
2022-12-22T22:16:47.888Z,3.92
2022-12-22T22:19:14.493Z,3.89
2022-12-22T22:21:41.031Z,3.87
2022-12-22T22:24:07.723Z,3.92
2022-12-22T22:26:34.288Z,3.96
2022-12-22T22:29:00.838Z,4.07
2022-12-22T22:31:27.419Z,4.06
2022-12-22T22:33:54.133Z,4.06
2022-12-22T22:36:20.678Z,4.12
2022-12-22T22:38:50.712Z,4.15
2022-12-22T22:41:17.255Z,4.17
2022-12-22T22:43:43.846Z,4.23
2022-12-22T22:46:10.411Z,4.26
2022-12-22T22:48:37.285Z,4.36
2022-12-22T22:51:03.934Z,4.32
2022-12-22T22:53:30.842Z,4.30
2022-12-22T22:56:02.409Z,4.30
2022-12-22T22:58:29.722Z,4.32
2022-12-22T23:00:56.483Z,4.37
2022-12-22T23:03:23.337Z,4.39
2022-12-22T23:05:50.032Z,4.39
2022-12-22T23:08:16.601Z,4.42
2022-12-22T23:10:49.396Z,4.49
2022-12-22T23:13:15.971Z,4.51
2022-12-22T23:15:42.696Z,4.54
2022-12-22T23:18:09.322Z,4.57
2022-12-22T23:20:35.936Z,4.58
2022-12-22T23:23:02.549Z,4.55
2022-12-22T23:25:29.104Z,4.50
2022-12-22T23:27:55.687Z,4.48
2022-12-22T23:30:22.264Z,4.46
2022-12-22T23:32:48.813Z,4.45
2022-12-22T23:35:15.413Z,4.41
2022-12-22T23:37:41.955Z,4.39
2022-12-22T23:40:41.833Z,4.47
2022-12-22T23:42:57.234Z,4.46
2022-12-22T23:45:24.016Z,4.47
2022-12-22T23:47:50.556Z,4.54
2022-12-22T23:50:17.220Z,4.56
2022-12-22T23:52:48.929Z,4.55
2022-12-22T23:55:16.173Z,4.55
2022-12-22T23:57:43.284Z,4.60
